Time;durP1;ratioP1;P1;durP2;ratioP2;P2;SDS_P1;SDS_P2;PMS_P1;PMS_P2;Temp;Humidity;BMP_temperature;BMP_pressure;BME280_temperature;BME280_humidity;BME280_pressure;Samples;Min_cycle;Max_cycle;Signal;HPM_P1;HPM_P2
2022/01/25 00:15:05;;;;;;;61.75;36.30;;;4.30;99.90;;;;;;4849048;29;68552;-86
2022/01/25 00:26:36;;;;;;;60.45;35.03;;;4.20;99.90;;;;;;4811984;29;196841;-87
2022/01/25 00:29:33;;;;;;;64.70;36.10;;;4.20;99.90;;;;;;4818543;29;20064;-86
2022/01/25 00:32:29;;;;;;;62.92;36.63;;;4.20;99.90;;;;;;4835932;29;20049;-85
2022/01/25 00:35:51;;;;;;;;;;;;;;;;;;;;;
2022/01/25 00:38:55;;;;;;;59.20;35.92;;;4.20;99.90;;;;;;4830833;29;20054;-85
2022/01/25 00:41:50;;;;;;;64.63;36.47;;;4.20;99.90;;;;;;4806704;29;20069;-85
2022/01/25 00:44:30;;;;;;;67.82;38.08;;;4.20;99.90;;;;;;4778047;29;286400;-85
2022/01/25 00:47:15;;;;;;;61.83;36.25;;;4.20;99.90;;;;;;4805281;29;20571;-86
2022/01/25 00:50:13;;;;;;;63.45;37.83;;;4.20;99.90;;;;;;4770214;29;169540;-85
2022/01/25 01:03:28;;;;;;;60.53;35.55;;;4.20;99.90;;;;;;4739258;30;20067;-86
2022/01/25 01:07:06;;;;;;;64.00;36.58;;;4.20;99.90;;;;;;4612790;30;2975148;-86
2022/01/25 01:09:40;;;;;;;66.95;38.00;;;4.20;99.90;;;;;;4738808;29;20051;-86
2022/01/25 01:13:14;;;;;;;66.50;38.58;;;4.20;99.90;;;;;;4760981;29;20062;-87
2022/01/25 01:16:08;;;;;;;64.05;37.70;;;4.20;99.90;;;;;;4469898;29;9014233;-86
2022/01/25 01:31:36;;;;;;;68.00;40.13;;;4.20;99.90;;;;;;4814380;29;20381;-86
2022/01/25 01:38:14;;;;;;;66.00;39.15;;;4.20;99.90;;;;;;4826648;29;20057;-86
2022/01/25 01:43:37;;;;;;;70.03;39.33;;;4.10;99.90;;;;;;4835632;29;20045;-86
2022/01/25 01:49:43;;;;;;;71.43;39.97;;;4.10;99.90;;;;;;4751909;29;20055;-86
2022/01/25 01:52:37;;;;;;;69.90;40.00;;;4.10;99.90;;;;;;4775307;29;20501;-86
2022/01/25 01:55:37;;;;;;;67.63;40.17;;;4.10;99.90;;;;;;4768869;29;170296;-85
2022/01/25 02:01:50;;;;;;;64.28;37.22;;;4.10;99.90;;;;;;4457900;29;10003769;-86
2022/01/25 02:04:29;;;;;;;65.40;38.40;;;4.10;99.90;;;;;;4559255;29;3022044;-87
2022/01/25 02:07:29;;;;;;;67.95;38.60;;;4.00;99.90;;;;;;4780734;29;20214;-87
2022/01/25 02:10:15;;;;;;;66.20;38.75;;;4.00;99.90;;;;;;4682366;29;2951017;-87
2022/01/25 02:12:57;;;;;;;68.28;38.83;;;4.00;99.90;;;;;;4829577;29;20061;-86
2022/01/25 02:15:51;;;;;;;74.78;40.47;;;4.00;99.90;;;;;;4880366;29;20438;-86
2022/01/25 02:25:13;;;;;;;68.18;39.55;;;4.00;99.90;;;;;;4908686;28;57609;-86
2022/01/25 02:27:52;;;;;;;65.70;39.25;;;4.00;99.90;;;;;;4961405;28;20042;-86
2022/01/25 02:31:18;;;;;;;67.80;39.38;;;4.10;99.90;;;;;;4953372;28;241993;-86
2022/01/25 02:37:14;;;;;;;67.50;36.25;;;4.00;99.90;;;;;;5000848;28;19992;-86
2022/01/25 02:44:04;;;;;;;65.60;36.97;;;4.00;99.90;;;;;;4927912;28;20052;-85
2022/01/25 02:49:53;;;;;;;66.82;37.72;;;4.00;99.90;;;;;;4559538;28;10003752;-86
2022/01/25 02:52:38;;;;;;;64.22;38.08;;;4.00;99.90;;;;;;4869602;29;20052;-86
2022/01/25 02:55:38;;;;;;;71.13;39.28;;;4.10;99.90;;;;;;4857032;29;213596;-86
2022/01/25 02:58:31;;;;;;;67.70;37.83;;;4.00;99.90;;;;;;4860341;29;20060;-86
2022/01/25 03:01:11;;;;;;;63.67;37.33;;;4.00;99.90;;;;;;4807266;29;20053;-85
2022/01/25 03:03:47;;;;;;;68.28;39.00;;;4.10;99.90;;;;;;4856949;23;227150;-70
2022/01/25 03:06:18;;;;;;;63.67;37.78;;;4.00;99.90;;;;;;5028885;28;20056;-71
2022/01/25 03:08:45;;;;;;;65.03;36.80;;;4.00;99.90;;;;;;5032779;28;234866;-70
2022/01/25 03:11:12;;;;;;;65.75;38.97;;;4.00;99.90;;;;;;5058354;28;20063;-70
2022/01/25 03:13:53;;;;;;;67.05;38.60;;;4.00;99.90;;;;;;5018239;28;69246;-69
2022/01/25 03:16:31;;;;;;;66.95;39.08;;;4.00;99.90;;;;;;5047018;28;20080;-70
2022/01/25 03:23:53;;;;;;;66.43;39.27;;;4.10;99.90;;;;;;4978377;28;58279;-71
2022/01/25 03:26:19;;;;;;;67.20;38.15;;;4.10;99.90;;;;;;5042644;28;20490;-71
2022/01/25 03:28:47;;;;;;;69.70;40.65;;;4.00;99.90;;;;;;5010398;28;115169;-70
2022/01/25 03:31:14;;;;;;;68.43;39.83;;;4.00;99.90;;;;;;5040152;28;20049;-71
2022/01/25 03:33:40;;;;;;;69.97;38.22;;;4.00;99.90;;;;;;4992701;28;35672;-70
2022/01/25 03:36:07;;;;;;;68.70;38.97;;;4.00;99.90;;;;;;5028044;28;20418;-71
2022/01/25 03:38:38;;;;;;;66.45;37.72;;;4.00;99.90;;;;;;5004564;28;20049;-71
2022/01/25 03:41:07;;;;;;;69.65;37.55;;;4.00;99.90;;;;;;5016830;28;20041;-71
2022/01/25 03:43:35;;;;;;;70.72;40.42;;;4.00;99.90;;;;;;5005972;28;20053;-71
2022/01/25 03:50:58;;;;;;;65.55;37.42;;;4.00;99.90;;;;;;5000984;28;77398;-71
2022/01/25 03:53:24;;;;;;;70.53;38.70;;;4.00;99.90;;;;;;5020002;28;20060;-70
2022/01/25 03:55:50;;;;;;;64.15;38.58;;;4.00;99.90;;;;;;5028979;28;89858;-71
2022/01/25 03:58:17;;;;;;;71.80;40.28;;;4.00;99.90;;;;;;5017225;28;20208;-71
2022/01/25 04:00:44;;;;;;;69.20;38.78;;;4.00;99.90;;;;;;5023126;28;236956;-71
2022/01/25 04:03:17;;;;;;;66.53;38.33;;;4.00;99.90;;;;;;5004509;28;20045;-71
2022/01/25 04:08:11;;;;;;;71.88;38.88;;;4.00;99.90;;;;;;5022473;28;20474;-71
2022/01/25 04:10:39;;;;;;;69.25;38.70;;;4.00;99.90;;;;;;5026853;28;73729;-71
2022/01/25 04:13:06;;;;;;;71.80;38.08;;;4.00;99.90;;;;;;5014168;28;20057;-71
2022/01/25 04:15:32;;;;;;;67.63;37.63;;;3.90;99.90;;;;;;5009237;28;42544;-71
2022/01/25 04:20:32;;;;;;;66.85;38.08;;;3.90;99.90;;;;;;5023031;28;112400;-71
2022/01/25 04:25:43;;;;;;;68.28;38.78;;;3.90;99.90;;;;;;5032773;28;93533;-71
2022/01/25 04:28:09;;;;;;;70.18;38.13;;;3.90;99.90;;;;;;5015467;28;20445;-71
2022/01/25 04:30:35;;;;;;;70.22;37.92;;;3.90;99.90;;;;;;5016576;28;217860;-70
2022/01/25 04:33:06;;;;;;;69.32;37.72;;;3.90;99.90;;;;;;5024131;28;20421;-71
2022/01/25 04:49:19;;;;;;;65.72;37.15;;;3.90;99.90;;;;;;5005347;28;200371;-71
2022/01/25 04:57:42;;;;;;;66.32;37.35;;;3.90;99.90;;;;;;5038990;28;20513;-69
2022/01/25 05:02:19;;;;;;;72.15;37.47;;;3.90;99.90;;;;;;5004152;28;20052;-71
2022/01/25 05:04:53;;;;;;;67.90;38.90;;;3.90;99.90;;;;;;5017448;28;149752;-72
2022/01/25 05:07:36;;;;;;;64.63;35.70;;;3.90;99.90;;;;;;5028573;28;20048;-72
2022/01/25 05:10:04;;;;;;;67.95;38.03;;;3.90;99.90;;;;;;5033010;28;100937;-71
2022/01/25 05:12:52;;;;;;;71.38;38.60;;;3.90;99.90;;;;;;5025697;28;20037;-72
2022/01/25 05:17:58;;;;;;;70.82;37.30;;;3.90;99.90;;;;;;5018780;28;20625;-71
2022/01/25 05:23:09;;;;;;;70.53;39.70;;;3.90;99.90;;;;;;5025528;28;20059;-72
2022/01/25 05:25:35;;;;;;;69.97;37.83;;;3.90;99.90;;;;;;5011300;28;157539;-72
2022/01/25 05:28:01;;;;;;;65.75;37.13;;;3.90;99.90;;;;;;5024382;28;20544;-72
2022/01/25 05:30:27;;;;;;;70.10;39.22;;;3.90;99.90;;;;;;5016042;28;252136;-71
2022/01/25 05:32:53;;;;;;;65.15;38.22;;;3.80;99.90;;;;;;5024944;28;20064;-72
2022/01/25 05:35:20;;;;;;;67.25;38.33;;;3.80;99.90;;;;;;5026157;28;244581;-71
2022/01/25 05:37:46;;;;;;;67.68;38.80;;;3.80;99.90;;;;;;5008096;28;20048;-72
2022/01/25 05:40:26;;;;;;;66.35;36.15;;;3.90;99.90;;;;;;5027618;28;29356;-71
2022/01/25 05:46:00;;;;;;;67.20;37.35;;;3.80;99.90;;;;;;4964100;28;102892;-72
2022/01/25 05:48:28;;;;;;;68.78;38.78;;;3.80;99.90;;;;;;4953692;28;20500;-71
2022/01/25 05:50:55;;;;;;;69.35;37.70;;;3.80;99.90;;;;;;4965489;28;209321;-72
2022/01/25 05:53:22;;;;;;;71.03;39.25;;;3.80;99.90;;;;;;4966373;28;20089;-72
2022/01/25 05:55:48;;;;;;;66.70;36.75;;;3.90;99.90;;;;;;4962830;28;248396;-72
2022/01/25 05:58:14;;;;;;;72.70;37.53;;;3.80;99.90;;;;;;4950495;28;20062;-72
2022/01/25 06:00:40;;;;;;;71.32;38.83;;;3.90;99.90;;;;;;4972136;28;124657;-72
2022/01/25 06:03:07;;;;;;;68.47;35.28;;;3.80;99.90;;;;;;4964509;28;20046;-72
2022/01/25 06:05:34;;;;;;;68.25;38.53;;;3.80;99.90;;;;;;4955695;28;146380;-71
2022/01/25 06:08:01;;;;;;;73.13;38.17;;;3.80;99.90;;;;;;4966362;28;20049;-71
2022/01/25 06:10:27;;;;;;;72.53;39.15;;;3.80;99.90;;;;;;4969480;28;144265;-72
2022/01/25 06:12:53;;;;;;;68.60;39.90;;;3.90;99.90;;;;;;4943006;28;20045;-72
2022/01/25 06:15:20;;;;;;;70.47;38.83;;;3.90;99.90;;;;;;4964318;28;24625;-71
2022/01/25 06:17:46;;;;;;;71.18;39.13;;;3.90;99.90;;;;;;4965691;28;20050;-71
2022/01/25 06:20:12;;;;;;;68.72;38.25;;;3.90;99.90;;;;;;4955473;28;88072;-71
2022/01/25 06:22:39;;;;;;;75.63;37.65;;;3.90;99.90;;;;;;4995299;28;20072;-72
2022/01/25 06:25:05;;;;;;;69.93;37.78;;;3.90;99.90;;;;;;5020454;28;219965;-72
2022/01/25 06:27:31;;;;;;;70.85;38.20;;;3.90;99.90;;;;;;5025889;28;20060;-71
2022/01/25 06:29:57;;;;;;;69.03;39.28;;;3.90;99.90;;;;;;5016017;28;55135;-70
2022/01/25 06:32:24;;;;;;;68.25;37.95;;;3.90;99.90;;;;;;5009975;28;20045;-70
2022/01/25 06:34:50;;;;;;;66.90;37.58;;;3.90;99.90;;;;;;5004995;28;225960;-71
2022/01/25 06:37:16;;;;;;;68.18;38.28;;;3.90;99.90;;;;;;5009819;28;20061;-71
2022/01/25 06:39:42;;;;;;;74.88;38.55;;;3.90;99.90;;;;;;4961739;28;245530;-71
2022/01/25 06:42:09;;;;;;;67.97;37.30;;;3.90;99.90;;;;;;5014688;28;20053;-71
2022/01/25 06:44:37;;;;;;;70.65;38.67;;;3.90;99.90;;;;;;4983992;28;56296;-71
2022/01/25 06:47:03;;;;;;;69.38;38.47;;;3.90;99.90;;;;;;5005922;28;20029;-71
2022/01/25 06:49:30;;;;;;;78.82;39.70;;;3.90;99.90;;;;;;5024909;28;253559;-71
2022/01/25 06:51:56;;;;;;;75.82;38.30;;;3.90;99.90;;;;;;5020690;28;20151;-70
2022/01/25 06:54:22;;;;;;;70.75;38.97;;;3.90;99.90;;;;;;5010999;28;102289;-71
2022/01/25 06:56:48;;;;;;;72.28;38.10;;;3.90;99.90;;;;;;5024776;28;20075;-70
2022/01/25 06:59:15;;;;;;;68.05;38.20;;;3.90;99.90;;;;;;4984409;28;227060;-71
2022/01/25 07:01:41;;;;;;;70.68;38.55;;;3.90;99.90;;;;;;5013876;28;20064;-71
2022/01/25 07:04:07;;;;;;;69.82;39.15;;;4.00;99.90;;;;;;4992133;28;197827;-70
2022/01/25 07:06:33;;;;;;;70.07;38.55;;;3.90;99.90;;;;;;5042014;28;20044;-71
2022/01/25 07:09:02;;;;;;;69.93;38.85;;;3.90;99.90;;;;;;4994546;28;173380;-71
2022/01/25 07:11:29;;;;;;;73.78;38.95;;;3.90;99.90;;;;;;5044325;28;20037;-70
2022/01/25 07:13:56;;;;;;;68.40;38.25;;;4.00;99.90;;;;;;5009468;28;198663;-70
2022/01/25 07:16:22;;;;;;;72.53;38.30;;;4.00;99.90;;;;;;5029846;28;20049;-70
2022/01/25 07:18:48;;;;;;;72.93;38.15;;;4.00;99.90;;;;;;5018125;28;95166;-70
2022/01/25 07:21:15;;;;;;;71.43;38.28;;;4.00;99.90;;;;;;5021013;28;20049;-70
2022/01/25 07:23:41;;;;;;;69.38;36.67;;;4.00;99.90;;;;;;5010942;28;142592;-70
2022/01/25 07:26:07;;;;;;;73.10;38.10;;;4.00;99.90;;;;;;5032571;28;20092;-71
2022/01/25 07:28:34;;;;;;;71.55;38.58;;;4.00;99.90;;;;;;4984675;28;20053;-70
2022/01/25 07:31:00;;;;;;;72.55;37.47;;;3.90;99.90;;;;;;5012187;28;36783;-71
2022/01/25 07:33:27;;;;;;;74.57;38.97;;;4.00;99.90;;;;;;5019349;28;20046;-71
2022/01/25 07:35:53;;;;;;;71.85;38.30;;;4.00;99.90;;;;;;5015475;28;77045;-71
2022/01/25 07:38:19;;;;;;;78.00;37.78;;;4.00;99.90;;;;;;5023200;28;20056;-71
2022/01/25 07:40:45;;;;;;;73.18;36.92;;;4.00;99.90;;;;;;5012957;28;174123;-71
2022/01/25 07:43:11;;;;;;;71.40;36.22;;;4.00;99.90;;;;;;5011301;28;20055;-71
2022/01/25 07:45:37;;;;;;;78.82;38.85;;;4.00;99.90;;;;;;5015963;28;205333;-71
2022/01/25 07:48:09;;;;;;;69.93;37.35;;;4.00;99.90;;;;;;5005664;28;20445;-71
2022/01/25 07:50:36;;;;;;;;;;;4.00;99.90;;;;;;5029578;28;139311;-71
2022/01/25 07:53:02;;;;;;;71.60;37.53;;;4.00;99.90;;;;;;5007513;28;19928;-71
2022/01/25 07:55:28;;;;;;;69.10;36.83;;;4.00;99.90;;;;;;5026914;28;99659;-71
2022/01/25 07:57:55;;;;;;;71.50;36.92;;;4.00;99.90;;;;;;5009494;28;20044;-71
2022/01/25 08:00:21;;;;;;;70.93;37.03;;;4.00;99.90;;;;;;5001844;28;154381;-71
2022/01/25 08:02:48;;;;;;;70.63;37.25;;;4.00;99.90;;;;;;5018134;28;20041;-71
2022/01/25 08:05:16;;;;;;;70.22;36.53;;;4.00;99.90;;;;;;4996011;28;160726;-71
2022/01/25 08:07:43;;;;;;;76.38;37.67;;;4.00;99.90;;;;;;5017271;28;20049;-71
2022/01/25 08:10:09;;;;;;;68.47;36.83;;;4.00;99.90;;;;;;4999074;28;166650;-71
2022/01/25 08:12:36;;;;;;;67.78;37.00;;;4.00;99.90;;;;;;5019783;28;20532;-71
2022/01/25 08:15:04;;;;;;;67.95;36.22;;;4.00;99.90;;;;;;5026700;28;114615;-73
2022/01/25 08:17:30;;;;;;;72.63;37.00;;;4.00;99.90;;;;;;5021022;28;20528;-71
2022/01/25 08:19:57;;;;;;;76.85;38.47;;;4.00;99.90;;;;;;5017361;28;69767;-70
2022/01/25 08:22:24;;;;;;;67.47;36.78;;;4.00;99.90;;;;;;5021059;28;20044;-69
2022/01/25 08:24:51;;;;;;;73.88;37.90;;;4.00;99.90;;;;;;4999361;28;193918;-71
2022/01/25 08:27:20;;;;;;;71.88;38.72;;;4.00;99.90;;;;;;5022319;28;20041;-71
2022/01/25 08:29:47;;;;;;;72.03;37.85;;;4.00;99.90;;;;;;5016141;28;34536;-71
2022/01/25 08:32:13;;;;;;;70.80;38.33;;;4.00;99.90;;;;;;5042676;28;20041;-71
2022/01/25 08:34:39;;;;;;;74.47;38.00;;;4.10;99.90;;;;;;5007346;28;148652;-71
2022/01/25 08:37:05;;;;;;;81.13;38.35;;;4.10;99.90;;;;;;5027683;28;20049;-71
2022/01/25 08:39:31;;;;;;;68.65;38.15;;;4.00;99.90;;;;;;5004913;28;167790;-71
2022/01/25 08:41:58;;;;;;;70.75;37.88;;;4.10;99.90;;;;;;5052257;28;20060;-71
2022/01/25 08:44:24;;;;;;;73.93;36.80;;;4.00;99.90;;;;;;4997805;28;115207;-71
2022/01/25 08:46:51;;;;;;;69.07;36.08;;;4.10;99.90;;;;;;5048517;28;20080;-71
2022/01/25 08:49:17;;;;;;;68.55;36.15;;;4.10;99.90;;;;;;5000525;28;138037;-71
2022/01/25 08:51:43;;;;;;;76.88;36.28;;;4.00;99.90;;;;;;5042133;28;20052;-71
2022/01/25 08:54:09;;;;;;;70.20;37.08;;;4.10;99.90;;;;;;5004961;28;162088;-71
2022/01/25 08:56:36;;;;;;;72.68;36.92;;;4.10;99.90;;;;;;5027196;28;20060;-71
2022/01/25 08:59:02;;;;;;;72.63;36.78;;;4.10;99.90;;;;;;5017729;28;148564;-71
2022/01/25 09:01:28;;;;;;;71.95;37.30;;;4.10;99.90;;;;;;5035076;28;20378;-71
2022/01/25 09:03:54;;;;;;;70.65;37.03;;;4.10;99.90;;;;;;4982715;28;150814;-71
2022/01/25 09:06:21;;;;;;;72.72;37.55;;;4.10;99.90;;;;;;5048812;28;20148;-71
2022/01/25 09:08:49;;;;;;;69.88;37.60;;;4.10;99.90;;;;;;5019166;28;20052;-71
2022/01/25 09:11:15;;;;;;;72.20;36.38;;;4.10;99.90;;;;;;5041272;28;20053;-71
2022/01/25 09:13:41;;;;;;;69.32;36.58;;;4.10;99.90;;;;;;4987411;28;124814;-71
2022/01/25 09:16:08;;;;;;;72.20;36.33;;;4.10;99.90;;;;;;5007977;28;20057;-72
2022/01/25 09:18:35;;;;;;;65.70;35.75;;;4.10;99.90;;;;;;5003370;28;20050;-71
2022/01/25 09:21:01;;;;;;;76.70;37.92;;;4.10;99.90;;;;;;5050735;22;55902;-70
2022/01/25 09:23:27;;;;;;;70.93;37.53;;;4.10;99.90;;;;;;5003377;28;20052;-70
2022/01/25 09:25:55;;;;;;;72.63;37.80;;;4.10;99.90;;;;;;4996827;28;94241;-70
2022/01/25 09:28:21;;;;;;;71.70;36.35;;;4.20;99.90;;;;;;4994959;28;20041;-70
2022/01/25 09:30:48;;;;;;;71.05;38.13;;;4.20;99.90;;;;;;5003200;28;182974;-69
2022/01/25 09:33:14;;;;;;;74.28;38.90;;;4.10;99.90;;;;;;4981357;28;20449;-70
2022/01/25 09:35:41;;;;;;;72.18;37.03;;;4.20;99.90;;;;;;4980572;28;246864;-70
2022/01/25 09:38:08;;;;;;;71.40;37.60;;;4.20;99.90;;;;;;4980492;28;20043;-70
2022/01/25 09:40:34;;;;;;;70.50;36.28;;;4.20;99.90;;;;;;4972166;28;144956;-70
2022/01/25 09:43:01;;;;;;;69.47;35.35;;;4.20;99.90;;;;;;4985419;28;20133;-70
2022/01/25 09:45:27;;;;;;;71.97;36.65;;;4.20;99.90;;;;;;4983174;28;104010;-70
2022/01/25 09:47:54;;;;;;;71.18;36.30;;;4.20;99.90;;;;;;4964435;28;20041;-70
2022/01/25 09:50:21;;;;;;;74.95;37.60;;;4.30;99.90;;;;;;4990563;28;61206;-70
2022/01/25 09:52:48;;;;;;;72.10;37.88;;;4.20;99.90;;;;;;4961543;28;20052;-70
2022/01/25 09:55:20;;;;;;;77.75;37.67;;;4.30;99.90;;;;;;5011481;28;20064;-71
2022/01/25 09:57:47;;;;;;;74.90;37.92;;;4.30;99.90;;;;;;4988067;28;20414;-70
2022/01/25 10:00:15;;;;;;;73.38;37.63;;;4.30;99.90;;;;;;4994318;28;33916;-70
2022/01/25 10:02:50;;;;;;;80.25;40.03;;;4.20;99.90;;;;;;4978194;28;20476;-70
2022/01/25 10:05:29;;;;;;;78.05;40.20;;;4.30;99.90;;;;;;4974442;28;170386;-70
2022/01/25 10:08:17;;;;;;;78.60;37.40;;;4.30;99.90;;;;;;4969568;28;20532;-70
2022/01/25 10:10:54;;;;;;;73.10;36.67;;;4.30;99.90;;;;;;5009932;28;133485;-70
2022/01/25 10:13:38;;;;;;;78.45;37.33;;;4.30;99.90;;;;;;4987621;28;20037;-70
2022/01/25 10:16:13;;;;;;;73.00;38.15;;;4.30;99.90;;;;;;4975160;28;20045;-70
2022/01/25 10:18:58;;;;;;;76.50;37.55;;;4.20;99.90;;;;;;4973705;28;23383;-68
2022/01/25 10:21:25;;;;;;;73.32;38.22;;;4.30;99.90;;;;;;5003055;28;20050;-70
2022/01/25 10:24:06;;;;;;;75.07;38.78;;;4.30;99.90;;;;;;4967770;28;251732;-70
2022/01/25 10:26:41;;;;;;;72.03;35.63;;;4.30;99.90;;;;;;4993435;28;20054;-70
2022/01/25 10:29:10;;;;;;;79.70;39.40;;;4.20;99.90;;;;;;4967294;28;214459;-69
2022/01/25 10:31:42;;;;;;;76.22;38.10;;;4.30;99.90;;;;;;5003497;28;20835;-70
2022/01/25 10:34:10;;;;;;;75.43;39.20;;;4.30;99.90;;;;;;4991596;28;60474;-70
2022/01/25 10:36:43;;;;;;;74.40;37.67;;;4.30;99.90;;;;;;5004413;28;20058;-70
2022/01/25 10:39:09;;;;;;;79.65;39.50;;;4.30;99.90;;;;;;4965523;28;202717;-70
2022/01/25 10:41:36;;;;;;;75.75;38.63;;;4.30;99.90;;;;;;4989782;28;20054;-70
2022/01/25 10:44:02;;;;;;;73.85;37.38;;;4.30;99.90;;;;;;4953513;28;149307;-71
2022/01/25 10:46:30;;;;;;;76.20;38.17;;;4.30;99.90;;;;;;4989509;28;20418;-70
2022/01/25 10:48:58;;;;;;;85.93;39.92;;;4.30;99.90;;;;;;4977998;28;223940;-70
2022/01/25 10:51:27;;;;;;;73.70;37.55;;;4.30;99.90;;;;;;4987423;28;20049;-71
2022/01/25 10:54:13;;;;;;;82.47;38.33;;;4.30;99.90;;;;;;4964634;28;259653;-70
2022/01/25 10:56:49;;;;;;;77.00;37.63;;;4.30;99.90;;;;;;5001410;28;20046;-70
2022/01/25 10:59:20;;;;;;;80.18;39.65;;;4.30;99.90;;;;;;4972467;28;136137;-70
2022/01/25 11:01:52;;;;;;;80.28;39.72;;;4.40;99.90;;;;;;4989552;28;20081;-70
2022/01/25 11:04:22;;;;;;;82.47;39.72;;;4.30;99.90;;;;;;4964471;28;205627;-70
2022/01/25 11:07:00;;;;;;;84.57;40.87;;;4.40;99.90;;;;;;4987773;28;20468;-71
2022/01/25 11:09:34;;;;;;;76.75;37.72;;;4.40;99.90;;;;;;4968651;28;101961;-70
2022/01/25 11:12:01;;;;;;;75.53;39.03;;;4.40;99.90;;;;;;5003033;28;20061;-70
2022/01/25 11:17:12;;;;;;;81.93;39.20;;;4.40;99.90;;;;;;5003177;28;20478;-70
2022/01/25 11:19:38;;;;;;;79.18;40.17;;;4.40;99.90;;;;;;4950540;28;62100;-70
2022/01/25 11:22:05;;;;;;;77.10;37.83;;;4.40;99.90;;;;;;4991473;28;20061;-70
2022/01/25 11:24:32;;;;;;;79.50;39.58;;;4.40;99.90;;;;;;4969244;28;147632;-70
2022/01/25 11:27:03;;;;;;;80.90;40.72;;;4.40;99.90;;;;;;4999243;28;20057;-70
2022/01/25 11:29:29;;;;;;;75.32;39.47;;;4.40;99.90;;;;;;4968967;28;78386;-70
2022/01/25 11:32:04;;;;;;;81.28;37.95;;;4.50;99.90;;;;;;5005417;28;20155;-71
2022/01/25 11:34:33;;;;;;;76.80;37.65;;;4.50;99.90;;;;;;4982396;28;232040;-70
2022/01/25 11:37:02;;;;;;;75.93;37.58;;;4.40;99.90;;;;;;5017540;28;20065;-69
2022/01/25 11:39:29;;;;;;;80.43;38.97;;;4.40;99.90;;;;;;4983216;28;175028;-70
2022/01/25 11:42:24;;;;;;;78.13;37.28;;;4.40;99.90;;;;;;5001333;28;20053;-69
2022/01/25 11:44:53;;;;;;;74.85;36.78;;;4.40;99.90;;;;;;4971405;28;87995;-70
2022/01/25 11:47:35;;;;;;;76.78;36.83;;;4.40;99.90;;;;;;4986471;28;20056;-70
2022/01/25 11:50:07;;;;;;;76.30;37.72;;;4.40;99.90;;;;;;4951138;28;234800;-70
2022/01/25 11:52:35;;;;;;;77.57;35.95;;;4.40;99.90;;;;;;4978370;28;20058;-70
2022/01/25 11:55:27;;;;;;;85.00;38.88;;;4.50;99.90;;;;;;4977214;28;55065;-70
2022/01/25 11:57:55;;;;;;;;;;;4.40;99.90;;;;;;4987234;28;20041;-70
2022/01/25 12:00:34;;;;;;;77.95;35.90;;;4.40;99.90;;;;;;4976157;28;46696;-70
2022/01/25 12:03:01;;;;;;;78.40;37.55;;;4.40;99.90;;;;;;4979982;28;20529;-70
2022/01/25 12:05:28;;;;;;;78.45;36.60;;;4.40;99.90;;;;;;4959625;28;244287;-70
2022/01/25 12:08:04;;;;;;;79.80;37.28;;;4.50;99.90;;;;;;4980750;28;20983;-70
2022/01/25 12:10:43;;;;;;;81.15;39.17;;;4.50;99.90;;;;;;4987759;28;20376;-70
2022/01/25 12:13:26;;;;;;;83.85;38.00;;;4.50;99.90;;;;;;4981256;28;20042;-70
2022/01/25 12:16:28;;;;;;;80.70;39.38;;;4.50;99.90;;;;;;4988815;28;142812;-70
2022/01/25 12:19:00;;;;;;;82.28;38.58;;;4.50;99.90;;;;;;4971985;28;34467;-70
2022/01/25 12:21:44;;;;;;;;;;;4.50;99.90;;;;;;4996791;28;20060;-70
2022/01/25 12:24:50;;;;;;;80.72;38.08;;;4.50;99.90;;;;;;4965016;28;210156;-70
2022/01/25 12:27:25;;;;;;;82.63;38.70;;;4.40;99.90;;;;;;5016885;28;20046;-70
2022/01/25 12:30:14;;;;;;;90.45;41.85;;;4.40;99.90;;;;;;4963990;28;239675;-70
2022/01/25 12:33:02;;;;;;;90.95;40.55;;;4.50;99.90;;;;;;4982026;28;20062;-70
2022/01/25 12:35:42;;;;;;;86.10;43.08;;;4.50;99.90;;;;;;4997728;28;110283;-70
2022/01/25 12:38:24;;;;;;;92.45;42.42;;;4.40;99.90;;;;;;4981360;28;20375;-70
2022/01/25 12:41:07;;;;;;;87.90;40.97;;;4.40;99.90;;;;;;4988193;28;146568;-70
2022/01/25 12:43:38;;;;;;;99.80;44.05;;;4.50;99.90;;;;;;4986332;28;20120;-70
2022/01/25 12:46:37;;;;;;;89.55;42.30;;;4.40;99.90;;;;;;4992530;28;20045;-70
2022/01/25 12:49:13;;;;;;;96.13;42.40;;;4.40;99.90;;;;;;4969241;28;90139;-70
2022/01/25 12:51:42;;;;;;;94.85;42.65;;;4.40;99.90;;;;;;5001117;28;20070;-70
2022/01/25 12:54:11;;;;;;;97.57;44.20;;;4.40;99.90;;;;;;4982751;28;49510;-70
2022/01/25 12:56:44;;;;;;;105.80;45.03;;;4.40;99.90;;;;;;5002420;28;20072;-70
2022/01/25 12:59:14;;;;;;;95.70;44.40;;;4.40;99.90;;;;;;4964681;28;245764;-70
2022/01/25 13:01:42;;;;;;;103.53;45.40;;;4.40;99.90;;;;;;4986712;28;20066;-70
2022/01/25 13:04:11;;;;;;;90.38;42.10;;;4.40;99.90;;;;;;4956660;28;140264;-69
2022/01/25 13:06:48;;;;;;;89.70;43.00;;;4.40;99.90;;;;;;4982410;28;20081;-70
2022/01/25 13:16:53;;;;;;;93.50;43.42;;;4.40;99.90;;;;;;5000368;28;20054;-71
2022/01/25 13:19:22;;;;;;;86.47;42.10;;;4.40;99.90;;;;;;4985162;28;65424;-71
2022/01/25 13:21:53;;;;;;;94.53;42.42;;;4.40;99.90;;;;;;5001853;28;20106;-71
2022/01/25 13:24:22;;;;;;;90.03;42.33;;;4.40;99.90;;;;;;4974208;28;76680;-71
2022/01/25 13:26:54;;;;;;;95.32;41.30;;;4.40;99.90;;;;;;4996372;28;20878;-71
2022/01/25 13:32:24;;;;;;;89.95;41.72;;;4.40;99.90;;;;;;5024062;28;20069;-71
2022/01/25 13:35:18;;;;;;;91.78;41.75;;;4.50;99.90;;;;;;4960650;28;74830;-71
2022/01/25 13:37:46;;;;;;;91.03;39.65;;;4.40;99.90;;;;;;4987696;28;20065;-71
2022/01/25 13:40:14;;;;;;;92.80;40.45;;;4.40;99.90;;;;;;4985529;28;215226;-71
2022/01/25 13:42:56;;;;;;;87.22;40.63;;;4.50;99.90;;;;;;5004288;28;20058;-72
2022/01/25 13:48:11;;;;;;;87.57;39.72;;;4.50;99.90;;;;;;4986281;28;20526;-72
2022/01/25 13:50:39;;;;;;;85.75;39.88;;;4.50;99.90;;;;;;4987994;28;60910;-72
2022/01/25 13:53:07;;;;;;;76.97;37.65;;;4.50;99.90;;;;;;4981624;28;20042;-71
2022/01/25 13:55:35;;;;;;;85.43;38.97;;;4.50;99.90;;;;;;4976214;28;65499;-71
2022/01/25 13:58:01;;;;;;;78.38;38.78;;;4.50;99.90;;;;;;4985729;28;20133;-71
2022/01/25 14:00:28;;;;;;;86.32;38.80;;;4.50;99.90;;;;;;4981908;28;197601;-71
2022/01/25 14:02:56;;;;;;;82.60;39.05;;;4.50;99.90;;;;;;4986174;28;20053;-71
2022/01/25 14:05:24;;;;;;;78.18;38.00;;;4.50;99.90;;;;;;4970271;28;124402;-70
2022/01/25 14:07:52;;;;;;;87.10;39.90;;;4.40;99.90;;;;;;4971999;28;20528;-71
2022/01/25 14:10:24;;;;;;;82.95;38.67;;;4.40;99.90;;;;;;4992804;28;131265;-71
2022/01/25 14:21:41;;;;;;;89.18;41.38;;;4.40;99.90;;;;;;4993858;28;20053;-72
2022/01/25 14:24:07;;;;;;;88.82;38.25;;;4.40;99.90;;;;;;4974059;28;25631;-70
2022/01/25 14:26:34;;;;;;;84.55;37.78;;;4.30;99.90;;;;;;4992798;28;20054;-71
2022/01/25 14:29:14;;;;;;;87.55;40.35;;;4.40;99.90;;;;;;4969278;28;233580;-71
2022/01/25 14:31:43;;;;;;;86.15;41.05;;;4.40;99.90;;;;;;4987493;28;20050;-72
2022/01/25 14:34:11;;;;;;;83.65;38.22;;;4.40;99.90;;;;;;4988736;28;25507;-71
2022/01/25 14:36:39;;;;;;;84.30;38.03;;;4.40;99.90;;;;;;5005057;28;20118;-71
2022/01/25 14:39:06;;;;;;;90.45;39.05;;;4.40;99.90;;;;;;4986888;28;52967;-71
2022/01/25 14:41:36;;;;;;;85.65;39.15;;;4.30;99.90;;;;;;5008780;28;20076;-71
2022/01/25 14:44:12;;;;;;;85.07;38.35;;;4.30;99.90;;;;;;4981651;28;230295;-71
2022/01/25 14:46:41;;;;;;;81.97;38.03;;;4.30;99.90;;;;;;4994170;28;20045;-71
2022/01/25 14:49:22;;;;;;;90.43;37.85;;;4.30;99.90;;;;;;4969969;28;210067;-71
2022/01/25 14:51:50;;;;;;;;;;;4.40;99.90;;;;;;4979492;28;20049;-71
2022/01/25 14:54:29;;;;;;;88.55;37.25;;;4.30;99.90;;;;;;4973918;28;123746;-71
2022/01/25 14:57:04;;;;;;;87.55;39.42;;;4.30;99.90;;;;;;5004812;28;20053;-71
2022/01/25 14:59:33;;;;;;;84.15;37.63;;;4.30;99.90;;;;;;4949067;28;165278;-71
2022/01/25 15:02:11;;;;;;;81.63;37.42;;;4.30;99.90;;;;;;4995909;28;20062;-71
2022/01/25 15:04:41;;;;;;;86.93;37.47;;;4.30;99.90;;;;;;4952025;28;239002;-71
2022/01/25 15:07:17;;;;;;;91.30;39.70;;;4.30;99.90;;;;;;5004584;28;20034;-71
2022/01/25 15:09:55;;;;;;;89.32;39.17;;;4.30;99.90;;;;;;4973015;28;203855;-71
2022/01/25 15:12:44;;;;;;;84.97;38.35;;;4.30;99.90;;;;;;4996929;28;21087;-71
2022/01/25 15:15:23;;;;;;;87.82;38.10;;;4.30;99.90;;;;;;4938729;28;187525;-71
2022/01/25 15:17:49;;;;;;;92.82;39.97;;;4.30;99.90;;;;;;4990708;28;20501;-71
2022/01/25 15:20:17;;;;;;;94.10;40.55;;;4.30;99.90;;;;;;5009613;22;57563;-85
2022/01/25 15:22:45;;;;;;;93.05;40.55;;;4.30;99.90;;;;;;5004100;28;20050;-84
2022/01/25 15:25:19;;;;;;;91.00;39.25;;;4.30;99.90;;;;;;4987976;28;198595;-84
2022/01/25 15:27:46;;;;;;;94.50;40.15;;;4.20;99.90;;;;;;5012202;28;20833;-84
2022/01/25 15:30:12;;;;;;;94.72;41.75;;;4.30;99.90;;;;;;4992487;28;238652;-84
2022/01/25 15:32:39;;;;;;;93.03;40.83;;;4.20;99.90;;;;;;4996584;28;20049;-84